Time;durP1;ratioP1;P1;durP2;ratioP2;P2;SDS_P1;SDS_P2;PMS_P1;PMS_P2;Temp;Humidity;BMP_temperature;BMP_pressure;BME280_temperature;BME280_humidity;BME280_pressure;Samples;Min_cycle;Max_cycle;Signal;HPM_P1;HPM_P2
2022/05/29 00:00:41;;;;;;;1.85;1.05;;;18.50;99.90;;;;;;5072829;28;20259;-67
2022/05/29 00:03:08;;;;;;;2.10;1.08;;;18.50;99.90;;;;;;5072637;28;20685;-67
2022/05/29 00:05:37;;;;;;;1.58;1.05;;;18.40;99.90;;;;;;5072834;28;20232;-67
2022/05/29 00:08:05;;;;;;;1.35;0.90;;;18.40;99.90;;;;;;5073065;28;20214;-67
2022/05/29 00:10:41;;;;;;;2.13;1.60;;;18.40;99.90;;;;;;5058873;28;20256;-67
2022/05/29 00:13:11;;;;;;;1.30;0.98;;;18.40;99.90;;;;;;5072861;28;20210;-67
2022/05/29 00:15:38;;;;;;;1.98;1.30;;;18.30;99.90;;;;;;5072452;28;20232;-66
2022/05/29 00:18:06;;;;;;;1.85;1.20;;;18.30;99.90;;;;;;5072674;28;20206;-67
2022/05/29 00:20:33;;;;;;;1.80;1.10;;;18.20;99.90;;;;;;5072234;28;20252;-66
2022/05/29 00:23:00;;;;;;;3.95;1.23;;;18.20;99.90;;;;;;5072647;28;20669;-66
2022/05/29 00:25:27;;;;;;;1.95;1.25;;;18.10;99.90;;;;;;5072670;28;20316;-66
2022/05/29 00:27:54;;;;;;;4.30;1.00;;;18.10;99.90;;;;;;5072527;28;20251;-66
2022/05/29 00:30:23;;;;;;;2.90;1.58;;;18.00;99.90;;;;;;5061130;28;20628;-67
2022/05/29 00:32:50;;;;;;;1.15;0.93;;;18.00;99.90;;;;;;5069883;28;20212;-67
2022/05/29 00:35:17;;;;;;;0.95;0.95;;;18.00;99.90;;;;;;5072528;28;20636;-67
2022/05/29 00:37:46;;;;;;;2.88;1.20;;;18.00;99.90;;;;;;5071798;28;20252;-66
2022/05/29 00:40:23;;;;;;;3.42;1.02;;;17.90;99.90;;;;;;5072365;28;20202;-67
2022/05/29 00:42:50;;;;;;;1.70;1.10;;;17.90;99.90;;;;;;5071967;28;20263;-66
2022/05/29 00:45:21;;;;;;;2.97;1.25;;;17.90;99.90;;;;;;5072299;28;20318;-67
2022/05/29 00:47:49;;;;;;;2.08;1.23;;;17.80;99.90;;;;;;5071437;28;20678;-66
2022/05/29 00:50:19;;;;;;;2.30;1.00;;;17.70;99.90;;;;;;5072206;28;20210;-66
2022/05/29 00:52:46;;;;;;;1.25;1.05;;;17.70;99.90;;;;;;5071842;28;20234;-67
2022/05/29 00:55:17;;;;;;;1.98;1.10;;;17.70;99.90;;;;;;5072428;28;20198;-67
2022/05/29 00:57:47;;;;;;;5.80;1.05;;;17.70;99.90;;;;;;5071611;28;20260;-66
2022/05/29 01:00:18;;;;;;;2.38;1.35;;;17.60;99.90;;;;;;5071247;28;20210;-66
2022/05/29 01:02:46;;;;;;;1.10;0.95;;;17.60;99.90;;;;;;5071500;28;20214;-67
2022/05/29 01:05:16;;;;;;;3.80;1.20;;;17.50;99.90;;;;;;5071808;28;20233;-67
2022/05/29 01:07:45;;;;;;;2.33;1.50;;;17.50;99.90;;;;;;5071483;28;20206;-66
2022/05/29 01:10:13;;;;;;;1.65;0.93;;;17.40;99.90;;;;;;5071814;28;20198;-69
2022/05/29 01:12:51;;;;;;;2.80;1.05;;;17.40;99.90;;;;;;5071437;28;20202;-66
2022/05/29 01:15:27;;;;;;;1.65;0.88;;;17.40;99.90;;;;;;5071683;28;20210;-66
2022/05/29 01:18:01;;;;;;;2.05;1.40;;;17.40;99.90;;;;;;5071761;28;20255;-66
2022/05/29 01:20:53;;;;;;;2.58;0.95;;;17.30;99.90;;;;;;5071858;28;20293;-66
2022/05/29 01:23:38;;;;;;;10.73;1.80;;;17.30;99.90;;;;;;5071377;28;20248;-67
2022/05/29 01:26:57;;;;;;;2.50;1.30;;;17.20;99.90;;;;;;5060023;28;20310;-67
2022/05/29 01:29:33;;;;;;;1.10;1.00;;;17.20;99.90;;;;;;4994238;28;20205;-67
2022/05/29 01:32:06;;;;;;;2.25;1.20;;;17.10;99.90;;;;;;5061035;28;20678;-67
2022/05/29 01:34:40;;;;;;;1.02;0.95;;;17.00;99.90;;;;;;5070736;28;20198;-67
2022/05/29 01:37:16;;;;;;;1.50;0.95;;;17.00;99.90;;;;;;5071403;28;20264;-67
2022/05/29 01:39:59;;;;;;;1.17;0.80;;;16.90;99.90;;;;;;5070677;28;20263;-67
2022/05/29 01:42:31;;;;;;;2.80;1.25;;;16.90;99.90;;;;;;5071476;28;20201;-67
2022/05/29 01:45:05;;;;;;;2.53;1.50;;;16.90;99.90;;;;;;5070698;28;20722;-67
2022/05/29 01:47:37;;;;;;;1.63;1.48;;;16.80;99.90;;;;;;5070870;28;20210;-67
2022/05/29 01:50:12;;;;;;;2.15;1.10;;;16.80;99.90;;;;;;5071010;28;20203;-67
2022/05/29 01:52:47;;;;;;;4.70;1.30;;;16.80;99.90;;;;;;5070487;28;20202;-67
2022/05/29 01:55:19;;;;;;;4.47;1.73;;;16.80;99.90;;;;;;5071177;28;20625;-67
2022/05/29 01:57:52;;;;;;;2.10;0.90;;;16.70;99.90;;;;;;5070476;28;20734;-67
2022/05/29 02:00:22;;;;;;;4.50;1.50;;;16.80;99.90;;;;;;5070769;28;20198;-67
2022/05/29 02:02:55;;;;;;;2.60;1.40;;;16.70;99.90;;;;;;5070701;28;20214;-67
2022/05/29 02:05:26;;;;;;;2.80;1.40;;;16.70;99.90;;;;;;5070799;28;20222;-67
2022/05/29 02:08:02;;;;;;;1.55;0.85;;;16.80;99.90;;;;;;5070880;28;20206;-68
2022/05/29 02:10:36;;;;;;;1.90;1.65;;;16.70;99.90;;;;;;5070417;28;20201;-67
2022/05/29 02:13:08;;;;;;;2.72;1.63;;;16.50;99.90;;;;;;5068024;28;20247;-67
2022/05/29 02:15:44;;;;;;;2.08;1.15;;;16.40;99.90;;;;;;5069909;28;20213;-67
2022/05/29 02:18:18;;;;;;;1.98;1.50;;;16.30;99.90;;;;;;5070517;28;20201;-67
2022/05/29 02:20:49;;;;;;;1.10;1.00;;;16.30;99.90;;;;;;5070394;28;20259;-67
2022/05/29 02:23:23;;;;;;;1.95;1.15;;;16.30;99.90;;;;;;5056379;28;20626;-67
2022/05/29 02:25:55;;;;;;;2.40;1.15;;;16.30;99.90;;;;;;5070032;28;20251;-67
2022/05/29 02:28:28;;;;;;;1.67;1.25;;;16.30;99.90;;;;;;5070061;28;20210;-67
2022/05/29 02:31:05;;;;;;;2.58;1.23;;;16.30;99.90;;;;;;5058438;28;20211;-67
2022/05/29 02:33:41;;;;;;;1.65;1.10;;;16.30;99.90;;;;;;5069869;28;20271;-67
2022/05/29 02:36:23;;;;;;;2.10;1.13;;;16.20;99.90;;;;;;5070586;28;20282;-67
2022/05/29 02:39:01;;;;;;;2.05;1.60;;;16.20;99.90;;;;;;5070165;28;20297;-67
2022/05/29 02:41:43;;;;;;;1.63;1.00;;;16.30;99.90;;;;;;5070699;28;20206;-67
2022/05/29 02:44:18;;;;;;;1.83;1.08;;;16.30;99.90;;;;;;5069962;28;20218;-67
2022/05/29 02:46:52;;;;;;;2.67;1.55;;;16.10;99.90;;;;;;5067556;28;20205;-67
2022/05/29 02:49:25;;;;;;;1.02;0.93;;;16.10;99.90;;;;;;5059711;28;20244;-67
2022/05/29 02:51:57;;;;;;;1.05;0.90;;;16.00;99.90;;;;;;5069718;28;20620;-67
2022/05/29 02:54:27;;;;;;;1.95;1.30;;;16.00;99.90;;;;;;5070607;28;20213;-67
2022/05/29 02:56:54;;;;;;;4.28;1.17;;;16.10;99.90;;;;;;5070162;28;20615;-67
2022/05/29 02:59:24;;;;;;;5.07;1.40;;;16.10;99.90;;;;;;5070060;28;20286;-67
2022/05/29 03:02:00;;;;;;;1.65;1.10;;;15.90;99.90;;;;;;5069872;28;20214;-67
2022/05/29 03:04:34;;;;;;;1.38;1.10;;;15.80;99.90;;;;;;5070234;28;20645;-67
2022/05/29 03:07:06;;;;;;;2.20;1.15;;;15.70;99.90;;;;;;5070201;28;20293;-67
2022/05/29 03:09:45;;;;;;;1.35;1.13;;;15.70;99.90;;;;;;5069644;28;20205;-67
2022/05/29 03:12:25;;;;;;;2.97;1.20;;;15.60;99.90;;;;;;5069678;28;20209;-67
2022/05/29 03:15:01;;;;;;;3.25;1.30;;;15.60;99.90;;;;;;5069577;28;20612;-67
2022/05/29 03:17:38;;;;;;;2.85;1.10;;;15.50;99.90;;;;;;5070013;28;20206;-67
2022/05/29 03:20:11;;;;;;;1.98;1.70;;;15.40;99.90;;;;;;5069978;28;20206;-67
2022/05/29 03:22:46;;;;;;;1.05;0.82;;;15.40;99.90;;;;;;5057258;28;20219;-67
2022/05/29 03:25:21;;;;;;;1.33;1.23;;;15.40;99.90;;;;;;5073973;28;20251;-67
2022/05/29 03:27:50;;;;;;;1.33;1.20;;;15.40;99.90;;;;;;5072906;28;20634;-68
2022/05/29 03:30:20;;;;;;;1.63;1.10;;;15.40;99.90;;;;;;5073705;28;20206;-67
2022/05/29 03:32:54;;;;;;;1.70;1.08;;;15.40;99.90;;;;;;5073011;28;20210;-68
2022/05/29 03:35:26;;;;;;;2.67;0.90;;;15.20;99.90;;;;;;5073508;28;20216;-67
2022/05/29 03:37:54;;;;;;;2.70;1.15;;;15.00;99.90;;;;;;5073503;28;20205;-67
2022/05/29 03:40:22;;;;;;;3.17;1.13;;;14.90;99.90;;;;;;5073578;28;20202;-67
2022/05/29 03:42:49;;;;;;;1.45;1.20;;;15.00;99.90;;;;;;5073062;28;20206;-67
2022/05/29 03:45:16;;;;;;;5.35;1.13;;;15.10;99.90;;;;;;5073219;28;20862;-67
2022/05/29 03:47:43;;;;;;;3.80;1.20;;;15.10;99.90;;;;;;5072933;28;20304;-68
2022/05/29 03:50:14;;;;;;;3.88;1.35;;;15.10;99.90;;;;;;5073590;28;20206;-68
2022/05/29 03:52:42;;;;;;;3.10;1.30;;;15.10;99.90;;;;;;5072748;28;20689;-67
2022/05/29 03:55:10;;;;;;;1.88;0.90;;;15.00;99.90;;;;;;5072979;28;20214;-67
2022/05/29 03:57:37;;;;;;;1.23;1.13;;;15.10;99.90;;;;;;5072492;28;20234;-67
2022/05/29 04:00:05;;;;;;;1.73;1.00;;;15.10;99.90;;;;;;5073511;28;20269;-67
2022/05/29 04:02:32;;;;;;;4.43;1.23;;;15.10;99.90;;;;;;5072725;28;20202;-67
2022/05/29 04:04:59;;;;;;;1.40;1.00;;;15.10;99.90;;;;;;5073245;28;20275;-67
2022/05/29 04:12:54;;;;;;;1.48;1.10;;;14.80;99.90;;;;;;5072814;28;20692;-67
2022/05/29 04:15:22;;;;;;;1.35;1.23;;;14.80;99.90;;;;;;5073009;28;20257;-68
2022/05/29 04:17:48;;;;;;;1.92;1.25;;;14.80;99.90;;;;;;5072553;28;20214;-67
2022/05/29 04:20:16;;;;;;;1.92;1.10;;;14.70;99.90;;;;;;5072922;28;20202;-67
2022/05/29 04:22:44;;;;;;;3.90;1.50;;;14.60;99.90;;;;;;5058017;28;20263;-67
2022/05/29 04:25:11;;;;;;;4.05;1.35;;;14.60;99.90;;;;;;5072625;28;20280;-67
2022/05/29 04:27:38;;;;;;;2.63;1.00;;;14.70;99.90;;;;;;5072290;28;20692;-67
2022/05/29 04:30:06;;;;;;;2.15;1.13;;;14.60;99.90;;;;;;5072828;28;20206;-67
2022/05/29 04:35:18;;;;;;;2.08;1.05;;;14.60;99.90;;;;;;5072763;28;20221;-67
2022/05/29 04:37:46;;;;;;;0.95;0.80;;;14.50;99.90;;;;;;5071946;28;20681;-68
2022/05/29 04:40:14;;;;;;;1.17;1.02;;;14.50;99.90;;;;;;5072384;28;20206;-67
2022/05/29 04:42:41;;;;;;;2.17;1.00;;;14.50;99.90;;;;;;5072146;28;20677;-67
2022/05/29 04:45:08;;;;;;;1.65;1.27;;;14.50;99.90;;;;;;5072061;28;20279;-67
2022/05/29 04:47:35;;;;;;;2.97;1.35;;;14.40;99.90;;;;;;5071814;28;20615;-67
2022/05/29 04:50:03;;;;;;;3.30;1.50;;;14.30;99.90;;;;;;5072036;28;20228;-67
2022/05/29 04:52:30;;;;;;;1.52;1.02;;;14.30;99.90;;;;;;5072235;28;20693;-67
2022/05/29 04:54:58;;;;;;;2.03;0.85;;;14.30;99.90;;;;;;5072319;28;20686;-67
2022/05/29 04:57:25;;;;;;;4.30;1.67;;;14.30;99.90;;;;;;5072080;28;20693;-67
2022/05/29 04:59:52;;;;;;;2.53;1.45;;;14.20;99.90;;;;;;5071446;28;20260;-67
2022/05/29 05:02:19;;;;;;;4.03;1.35;;;14.20;99.90;;;;;;5072130;28;20210;-68
2022/05/29 05:04:46;;;;;;;1.23;1.02;;;14.40;99.90;;;;;;5071842;28;20206;-67
2022/05/29 05:07:13;;;;;;;1.38;1.10;;;14.50;99.90;;;;;;5071648;28;20662;-67
2022/05/29 05:09:40;;;;;;;2.53;0.80;;;14.50;99.90;;;;;;5071438;28;20570;-67
2022/05/29 05:12:10;;;;;;;4.80;1.08;;;14.40;99.90;;;;;;5071540;28;20214;-67
2022/05/29 05:14:37;;;;;;;3.00;1.10;;;14.40;99.90;;;;;;5071403;28;20234;-67
2022/05/29 05:17:04;;;;;;;3.58;1.23;;;14.30;99.90;;;;;;5071512;28;20731;-67
2022/05/29 05:19:31;;;;;;;1.73;1.08;;;14.40;99.90;;;;;;5071247;28;20632;-67
2022/05/29 05:22:01;;;;;;;3.05;1.35;;;14.50;99.90;;;;;;5060527;28;20626;-67
2022/05/29 05:24:28;;;;;;;2.33;1.30;;;14.60;99.90;;;;;;5069230;28;20344;-67
2022/05/29 05:26:58;;;;;;;3.50;1.00;;;14.60;99.90;;;;;;5071422;28;20234;-70
2022/05/29 05:29:27;;;;;;;5.45;2.38;;;14.50;99.90;;;;;;5071578;28;20216;-67
2022/05/29 05:31:54;;;;;;;2.60;1.45;;;14.50;99.90;;;;;;5071637;28;20214;-67
2022/05/29 05:34:21;;;;;;;3.05;1.40;;;14.60;99.90;;;;;;5071161;28;20206;-67
2022/05/29 05:36:49;;;;;;;2.55;1.13;;;14.70;99.90;;;;;;5070865;28;20245;-67
2022/05/29 05:39:16;;;;;;;1.67;1.20;;;14.70;99.90;;;;;;5071242;28;20206;-67
2022/05/29 05:41:42;;;;;;;2.40;1.20;;;14.80;99.90;;;;;;5070642;28;20621;-67
2022/05/29 05:44:09;;;;;;;9.05;1.70;;;14.70;99.90;;;;;;5070707;28;20267;-67
2022/05/29 05:46:43;;;;;;;2.53;1.10;;;14.80;99.90;;;;;;5070504;28;20240;-67
2022/05/29 05:49:10;;;;;;;2.70;1.10;;;14.80;99.90;;;;;;5071173;28;20202;-67
2022/05/29 05:51:37;;;;;;;3.88;1.10;;;14.70;99.90;;;;;;5070413;28;20202;-67
2022/05/29 05:54:04;;;;;;;1.48;1.02;;;14.80;99.90;;;;;;5071120;28;20206;-67
2022/05/29 05:56:31;;;;;;;5.80;1.20;;;14.80;99.90;;;;;;5070402;28;20210;-67
2022/05/29 05:58:58;;;;;;;1.27;1.10;;;14.90;99.90;;;;;;5071289;28;20681;-67
2022/05/29 06:01:25;;;;;;;4.00;1.25;;;14.90;99.90;;;;;;5071396;28;20207;-67
2022/05/29 06:03:53;;;;;;;1.20;1.02;;;15.00;99.90;;;;;;5070285;28;20742;-68
2022/05/29 06:06:20;;;;;;;4.03;1.88;;;15.00;99.90;;;;;;5070582;28;20299;-67
2022/05/29 06:08:47;;;;;;;1.67;1.05;;;15.00;99.90;;;;;;5070316;28;20206;-67
2022/05/29 06:11:14;;;;;;;2.13;1.17;;;15.10;99.90;;;;;;5071055;28;20202;-67
2022/05/29 06:13:41;;;;;;;2.90;1.75;;;15.30;99.90;;;;;;5070352;28;20263;-66
2022/05/29 06:16:09;;;;;;;1.90;1.05;;;15.40;99.90;;;;;;5070905;28;20210;-67
2022/05/29 06:18:36;;;;;;;2.10;0.75;;;15.40;99.90;;;;;;5070327;28;20206;-68
2022/05/29 06:21:05;;;;;;;3.22;1.40;;;15.40;99.90;;;;;;5067058;28;20211;-67
2022/05/29 06:23:33;;;;;;;1.20;0.80;;;15.50;99.90;;;;;;5060084;28;20214;-67
2022/05/29 06:26:02;;;;;;;2.72;2.42;;;15.60;99.90;;;;;;5070262;28;20778;-67
2022/05/29 06:28:29;;;;;;;1.50;1.17;;;15.60;99.90;;;;;;5070664;28;20202;-67
2022/05/29 06:30:56;;;;;;;2.92;0.93;;;15.50;99.90;;;;;;5070915;28;20202;-67
2022/05/29 06:33:26;;;;;;;4.65;1.25;;;15.60;99.90;;;;;;5070726;28;20251;-67
2022/05/29 06:35:53;;;;;;;1.15;1.00;;;15.70;99.90;;;;;;5069792;28;20296;-67
2022/05/29 06:38:21;;;;;;;3.13;1.20;;;15.80;99.90;;;;;;5070529;28;20255;-67
2022/05/29 06:40:50;;;;;;;1.13;0.75;;;15.90;99.90;;;;;;5070350;28;20252;-67
2022/05/29 06:43:17;;;;;;;2.55;1.00;;;16.00;99.90;;;;;;5070331;28;20213;-67
2022/05/29 06:45:44;;;;;;;4.82;1.40;;;16.10;99.90;;;;;;5069679;28;20805;-67
2022/05/29 06:48:11;;;;;;;2.75;1.17;;;16.20;99.90;;;;;;5070225;28;20210;-67
2022/05/29 06:50:38;;;;;;;3.63;1.15;;;16.40;99.90;;;;;;5069669;28;20271;-67
2022/05/29 06:53:05;;;;;;;2.30;0.93;;;16.40;99.90;;;;;;5070219;28;20202;-67
2022/05/29 06:55:33;;;;;;;3.28;1.00;;;16.50;99.90;;;;;;5070010;28;20210;-68
2022/05/29 06:58:00;;;;;;;1.52;1.00;;;16.70;99.90;;;;;;5073017;28;20256;-67
2022/05/29 07:08:43;;;;;;;1.40;1.30;;;17.20;99.90;;;;;;5073985;28;20228;-67
2022/05/29 07:11:16;;;;;;;5.03;1.40;;;17.20;99.90;;;;;;5074024;28;20206;-67
2022/05/29 07:13:44;;;;;;;4.78;1.40;;;17.30;99.90;;;;;;5073781;28;20202;-67
2022/05/29 07:16:11;;;;;;;2.55;1.55;;;17.80;99.90;;;;;;5074195;28;20214;-67
2022/05/29 07:18:38;;;;;;;2.35;1.27;;;17.60;99.90;;;;;;5073252;28;20713;-67
2022/05/29 07:21:06;;;;;;;1.13;1.00;;;17.40;99.90;;;;;;5070214;28;20546;-67
2022/05/29 07:23:35;;;;;;;3.55;1.30;;;17.40;99.90;;;;;;5063585;28;20210;-67
2022/05/29 07:26:03;;;;;;;2.70;1.10;;;17.50;99.90;;;;;;5073622;28;20230;-68
2022/05/29 07:28:31;;;;;;;1.10;0.82;;;17.70;99.90;;;;;;5073806;28;20202;-67
2022/05/29 07:30:58;;;;;;;3.55;1.40;;;17.80;99.90;;;;;;5073744;28;20218;-68
2022/05/29 07:33:25;;;;;;;3.50;1.00;;;18.20;99.90;;;;;;5073874;28;20571;-67
2022/05/29 07:35:53;;;;;;;5.97;1.55;;;19.80;99.90;;;;;;5073280;28;20216;-67
2022/05/29 07:38:20;;;;;;;2.28;0.98;;;19.50;99.90;;;;;;5073359;28;20234;-67
2022/05/29 07:40:47;;;;;;;3.65;0.95;;;18.70;99.90;;;;;;5073404;28;20238;-67
2022/05/29 07:43:18;;;;;;;1.70;0.98;;;18.40;99.90;;;;;;5073429;28;20202;-67
2022/05/29 07:45:47;;;;;;;1.88;1.20;;;18.30;99.90;;;;;;5072650;28;20209;-67
2022/05/29 07:48:15;;;;;;;1.67;1.13;;;18.40;99.90;;;;;;5073088;28;20202;-67
2022/05/29 07:50:42;;;;;;;2.05;1.13;;;18.60;99.90;;;;;;5073025;28;20293;-67
2022/05/29 07:53:09;;;;;;;2.47;1.23;;;18.60;99.90;;;;;;5073002;28;20209;-67
2022/05/29 07:55:37;;;;;;;1.23;0.70;;;18.70;99.90;;;;;;5073212;28;20289;-67
2022/05/29 07:58:04;;;;;;;2.58;1.15;;;18.70;99.90;;;;;;5073325;28;20655;-67
2022/05/29 08:00:32;;;;;;;3.53;1.15;;;19.00;99.90;;;;;;5072818;28;20646;-67
2022/05/29 08:03:00;;;;;;;2.65;1.33;;;20.40;99.90;;;;;;5072939;28;20210;-67
2022/05/29 08:05:29;;;;;;;1.42;1.10;;;21.10;99.90;;;;;;5073186;28;20723;-67
2022/05/29 08:07:56;;;;;;;4.28;1.17;;;23.80;99.90;;;;;;5072651;28;20234;-67
2022/05/29 08:10:24;;;;;;;1.75;1.00;;;22.30;99.90;;;;;;5073179;28;20206;-68
2022/05/29 08:12:51;;;;;;;3.55;1.42;;;20.90;99.90;;;;;;5072673;28;20563;-67
2022/05/29 08:15:19;;;;;;;2.13;0.95;;;20.30;99.90;;;;;;5072549;28;20564;-68
2022/05/29 08:17:46;;;;;;;1.65;0.80;;;19.90;99.90;;;;;;5072349;28;20210;-67
2022/05/29 08:20:16;;;;;;;2.22;1.58;;;19.90;99.90;;;;;;5072598;28;20207;-67
2022/05/29 08:22:43;;;;;;;3.25;1.85;;;20.00;99.90;;;;;;5058150;28;20726;-67
2022/05/29 08:30:41;;;;;;;2.00;1.67;;;20.30;99.90;;;;;;5072144;28;20221;-67
2022/05/29 08:33:10;;;;;;;3.65;1.40;;;20.40;99.90;;;;;;5072282;28;20209;-67
2022/05/29 08:35:40;;;;;;;4.28;1.75;;;20.30;99.90;;;;;;5072304;28;20615;-67
2022/05/29 08:38:08;;;;;;;3.72;1.25;;;20.30;99.90;;;;;;5072379;28;20679;-67
2022/05/29 08:40:41;;;;;;;3.55;1.52;;;20.30;99.90;;;;;;5071973;28;20738;-67
2022/05/29 08:43:12;;;;;;;6.03;2.10;;;20.40;99.90;;;;;;5072185;28;20264;-68
2022/05/29 08:45:40;;;;;;;2.08;1.58;;;20.30;99.90;;;;;;5071671;28;20206;-66
2022/05/29 08:48:08;;;;;;;1.40;0.90;;;20.60;99.90;;;;;;5072012;28;20774;-67
2022/05/29 08:50:47;;;;;;;2.92;1.25;;;20.90;99.90;;;;;;5071993;28;20260;-69
2022/05/29 08:53:28;;;;;;;1.58;1.13;;;21.30;99.90;;;;;;5071912;28;20738;-67
2022/05/29 08:56:05;;;;;;;4.22;1.05;;;23.20;99.90;;;;;;5072296;28;20214;-68
2022/05/29 08:58:38;;;;;;;5.03;1.73;;;24.70;99.90;;;;;;5071661;28;20206;-67
2022/05/29 09:01:15;;;;;;;2.15;1.67;;;23.90;99.90;;;;;;5071782;28;20202;-67
2022/05/29 09:03:54;;;;;;;2.42;0.82;;;23.00;99.90;;;;;;5071346;28;20271;-67
2022/05/29 09:06:29;;;;;;;4.32;1.15;;;22.70;99.90;;;;;;5071980;28;20276;-67
2022/05/29 09:09:04;;;;;;;1.70;1.00;;;22.30;99.90;;;;;;5072041;28;20206;-67
2022/05/29 09:11:35;;;;;;;2.00;1.30;;;23.10;99.90;;;;;;5071456;28;20210;-67
2022/05/29 09:14:14;;;;;;;2.60;1.25;;;23.70;99.90;;;;;;5071466;28;20542;-67
2022/05/29 09:16:45;;;;;;;4.95;1.60;;;24.70;99.90;;;;;;5071270;28;20669;-67
2022/05/29 09:19:23;;;;;;;4.40;1.00;;;24.50;99.90;;;;;;5056984;28;20259;-67
2022/05/29 09:21:56;;;;;;;3.28;1.20;;;24.50;99.90;;;;;;5061237;28;20757;-67
2022/05/29 09:24:46;;;;;;;2.20;1.33;;;25.40;99.90;;;;;;5068654;28;20380;-67
2022/05/29 09:27:14;;;;;;;2.55;0.90;;;26.70;99.90;;;;;;5061281;28;20609;-67
2022/05/29 09:29:41;;;;;;;2.30;0.85;;;27.80;99.90;;;;;;5070646;28;20210;-67
2022/05/29 09:32:14;;;;;;;3.20;1.35;;;28.60;99.90;;;;;;5071562;28;20252;-68
2022/05/29 09:34:43;;;;;;;2.92;1.10;;;26.60;99.90;;;;;;5070878;28;20289;-68
2022/05/29 09:37:19;;;;;;;1.65;1.02;;;26.40;99.90;;;;;;5071129;28;20214;-67
2022/05/29 09:39:50;;;;;;;3.08;1.10;;;26.50;99.90;;;;;;5070552;28;20202;-67
2022/05/29 09:42:23;;;;;;;3.53;1.77;;;25.80;99.90;;;;;;5071273;28;20248;-67
2022/05/29 09:45:11;;;;;;;3.90;1.90;;;27.80;99.90;;;;;;5070496;28;20718;-68
2022/05/29 09:50:26;;;;;;;1.77;1.00;;;29.30;99.90;;;;;;5071355;28;20286;-67
2022/05/29 09:52:54;;;;;;;3.25;1.92;;;28.80;99.90;;;;;;5070893;28;20206;-68
2022/05/29 09:55:29;;;;;;;4.95;1.33;;;27.50;99.90;;;;;;5070780;28;20201;-68
2022/05/29 09:58:00;;;;;;;2.92;1.63;;;29.30;99.90;;;;;;5070665;28;20205;-68
2022/05/29 10:00:30;;;;;;;2.50;1.40;;;29.30;99.90;;;;;;5071234;28;20202;-70
2022/05/29 10:02:59;;;;;;;2.30;1.27;;;29.50;99.90;;;;;;5071240;28;20271;-67
2022/05/29 10:05:29;;;;;;;1.75;1.38;;;32.20;99.90;;;;;;5071078;28;20591;-68
2022/05/29 10:08:00;;;;;;;7.55;2.28;;;34.50;99.90;;;;;;5071005;28;20240;-68
2022/05/29 10:10:33;;;;;;;5.28;1.60;;;34.90;99.90;;;;;;5071003;28;20206;-67
2022/05/29 10:13:02;;;;;;;2.80;1.42;;;35.00;99.90;;;;;;5070478;28;20730;-68
2022/05/29 10:15:40;;;;;;;3.55;1.42;;;35.30;99.90;;;;;;5070493;28;20201;-68
2022/05/29 10:18:31;;;;;;;2.50;1.30;;;35.50;99.90;;;;;;5070606;28;20753;-67
2022/05/29 10:21:09;;;;;;;3.60;1.25;;;35.40;99.90;;;;;;5067947;28;20216;-68
2022/05/29 10:23:38;;;;;;;3.25;1.50;;;36.10;99.90;;;;;;5060680;28;20255;-68
2022/05/29 10:26:30;;;;;;;2.08;1.30;;;36.80;99.90;;;;;;5070566;28;20266;-68
2022/05/29 10:28:58;;;;;;;2.58;1.48;;;35.30;99.90;;;;;;5070781;28;20209;-70
2022/05/29 10:31:27;;;;;;;3.97;1.42;;;34.20;99.90;;;;;;5070543;28;20247;-67
2022/05/29 10:34:05;;;;;;;1.85;1.55;;;32.20;99.90;;;;;;5070427;28;20205;-67
2022/05/29 10:36:32;;;;;;;3.00;1.42;;;27.60;99.90;;;;;;5069834;28;20669;-67
2022/05/29 10:39:09;;;;;;;1.65;1.55;;;25.50;99.90;;;;;;5070462;28;20205;-68
2022/05/29 10:41:39;;;;;;;2.60;1.60;;;24.40;99.90;;;;;;5069771;28;20260;-68
2022/05/29 10:44:09;;;;;;;3.47;1.55;;;24.30;99.90;;;;;;5070331;28;20681;-68
2022/05/29 10:46:43;;;;;;;2.30;1.20;;;24.00;99.90;;;;;;5069912;28;20210;-68
2022/05/29 10:49:26;;;;;;;3.15;1.00;;;24.10;99.90;;;;;;5070303;28;20259;-67
2022/05/29 10:52:30;;;;;;;1.52;1.10;;;24.20;99.90;;;;;;5069804;28;20241;-68
2022/05/29 10:55:30;;;;;;;2.28;1.13;;;24.00;99.90;;;;;;5070578;28;20347;-69
2022/05/29 10:58:09;;;;;;;2.78;1.70;;;24.30;99.90;;;;;;5070506;28;20644;-68
2022/05/29 11:00:46;;;;;;;1.45;1.15;;;24.50;99.90;;;;;;5056832;28;20202;-67
2022/05/29 11:03:50;;;;;;;4.00;1.60;;;24.60;99.90;;;;;;5070245;28;20206;-67
2022/05/29 11:06:56;;;;;;;3.58;1.40;;;24.30;99.90;;;;;;5070479;28;20256;-68
2022/05/29 11:09:53;;;;;;;2.88;2.08;;;24.20;99.90;;;;;;5068152;28;20208;-67
2022/05/29 11:12:33;;;;;;;4.28;1.52;;;24.40;99.90;;;;;;5069822;28;20256;-67
2022/05/29 11:15:13;;;;;;;1.85;0.88;;;24.30;99.90;;;;;;5070021;28;20202;-67
2022/05/29 11:18:01;;;;;;;2.10;1.85;;;24.40;99.90;;;;;;5057132;28;20259;-67
2022/05/29 11:20:55;;;;;;;1.85;1.05;;;24.40;99.90;;;;;;5070165;28;20211;-68
2022/05/29 11:23:37;;;;;;;2.38;1.48;;;24.60;99.90;;;;;;5069958;28;20236;-67
2022/05/29 11:26:13;;;;;;;2.58;1.38;;;24.80;99.90;;;;;;5069550;28;20580;-67
2022/05/29 11:29:07;;;;;;;3.53;1.38;;;24.50;99.90;;;;;;5069696;28;20283;-67
2022/05/29 11:31:49;;;;;;;1.27;1.10;;;24.20;99.90;;;;;;5069468;28;20621;-67
2022/05/29 11:34:28;;;;;;;2.17;1.30;;;24.40;99.90;;;;;;5069935;28;20206;-67
2022/05/29 11:37:26;;;;;;;2.92;1.00;;;24.60;99.90;;;;;;5069938;28;20210;-67
2022/05/29 11:40:00;;;;;;;3.10;1.20;;;24.80;99.90;;;;;;5012975;28;20216;-67
2022/05/29 11:42:33;;;;;;;2.33;0.90;;;24.60;99.90;;;;;;5070296;28;20206;-67
2022/05/29 11:45:09;;;;;;;2.80;1.42;;;24.70;99.90;;;;;;5073339;28;20235;-68
2022/05/29 11:53:24;;;;;;;1.90;1.33;;;23.90;99.90;;;;;;5073278;28;20217;-68
2022/05/29 11:55:53;;;;;;;2.55;1.60;;;24.20;99.90;;;;;;5072807;28;20797;-67
2022/05/29 11:58:25;;;;;;;3.03;2.25;;;24.40;99.90;;;;;;5073278;28;20206;-70
2022/05/29 12:00:58;;;;;;;5.25;1.90;;;24.40;99.90;;;;;;5072625;28;20275;-68
2022/05/29 12:03:37;;;;;;;1.95;0.90;;;23.90;99.90;;;;;;5073405;28;20210;-68
2022/05/29 12:06:12;;;;;;;3.00;1.77;;;24.00;99.90;;;;;;5073251;28;20210;-67
2022/05/29 12:08:48;;;;;;;0.93;0.80;;;24.50;99.90;;;;;;5072201;28;20788;-67
2022/05/29 12:11:35;;;;;;;1.40;1.30;;;25.00;99.90;;;;;;5072974;28;20208;-68
2022/05/29 12:14:08;;;;;;;3.00;1.20;;;25.00;99.90;;;;;;5072997;28;20626;-68
2022/05/29 12:16:41;;;;;;;3.97;0.98;;;25.00;99.90;;;;;;5072405;28;20198;-67
2022/05/29 12:19:14;;;;;;;1.63;0.82;;;25.00;99.90;;;;;;5072964;28;20218;-68
2022/05/29 12:21:45;;;;;;;1.40;1.20;;;24.80;99.90;;;;;;5063903;28;20206;-68
2022/05/29 12:24:17;;;;;;;4.68;1.20;;;25.10;99.90;;;;;;5067680;28;20217;-68
2022/05/29 12:26:50;;;;;;;3.90;1.00;;;25.40;99.90;;;;;;5072548;28;20256;-68
2022/05/29 12:29:23;;;;;;;4.07;1.40;;;25.60;99.90;;;;;;5072495;28;20285;-68
2022/05/29 12:31:57;;;;;;;2.55;1.15;;;24.90;99.90;;;;;;5072248;28;20748;-67
2022/05/29 12:34:28;;;;;;;3.60;1.10;;;25.10;99.90;;;;;;5072595;28;20210;-68
2022/05/29 12:37:24;;;;;;;3.15;1.02;;;25.40;99.90;;;;;;5072673;28;20216;-67
2022/05/29 12:40:17;;;;;;;1.77;0.90;;;25.60;99.90;;;;;;5071991;28;20202;-68
2022/05/29 12:43:04;;;;;;;4.35;1.98;;;25.80;99.90;;;;;;5071921;28;20202;-67
2022/05/29 12:45:40;;;;;;;2.70;0.93;;;25.60;99.90;;;;;;5072340;28;20252;-68
2022/05/29 12:48:41;;;;;;;2.35;1.02;;;25.40;99.90;;;;;;5072194;28;20662;-67
2022/05/29 12:51:21;;;;;;;1.35;0.98;;;25.00;99.90;;;;;;5072260;28;20213;-68
2022/05/29 12:54:17;;;;;;;1.40;0.70;;;24.60;99.90;;;;;;5071644;28;20218;-67
2022/05/29 12:57:06;;;;;;;1.85;1.00;;;25.00;99.90;;;;;;5071680;28;20210;-67
2022/05/29 12:59:59;;;;;;;3.45;1.00;;;25.00;99.90;;;;;;5071706;28;20297;-67
2022/05/29 13:02:44;;;;;;;1.88;1.25;;;24.90;99.90;;;;;;5072225;28;20248;-67
2022/05/29 13:05:42;;;;;;;2.58;1.30;;;25.20;99.90;;;;;;5072061;28;20206;-67
2022/05/29 13:08:42;;;;;;;1.30;0.90;;;25.20;99.90;;;;;;5066817;28;20601;-68
2022/05/29 13:11:10;;;;;;;2.30;1.10;;;25.00;99.90;;;;;;5068070;28;20596;-67
2022/05/29 13:13:41;;;;;;;1.83;0.88;;;25.00;99.90;;;;;;5071234;28;20732;-67
2022/05/29 13:16:23;;;;;;;2.17;1.23;;;25.20;99.90;;;;;;5071998;28;20241;-68
2022/05/29 13:21:58;;;;;;;4.20;0.93;;;25.60;99.90;;;;;;5097685;27;21122;-67
2022/05/29 13:24:28;;;;;;;0.95;0.85;;;25.60;99.90;;;;;;5087916;28;20677;-68
2022/05/29 13:27:33;;;;;;;1.17;0.60;;;25.20;99.90;;;;;;5087966;28;20266;-67
2022/05/29 13:30:05;;;;;;;2.47;0.80;;;25.20;99.90;;;;;;5088056;28;20212;-68
2022/05/29 13:32:34;;;;;;;0.73;0.57;;;25.20;99.90;;;;;;5087371;28;20205;-68
2022/05/29 13:35:36;;;;;;;2.00;0.90;;;25.40;99.90;;;;;;5087935;28;20210;-68
2022/05/29 13:38:04;;;;;;;0.90;0.68;;;25.40;99.90;;;;;;5075982;28;20623;-68
2022/05/29 13:40:45;;;;;;;1.58;1.02;;;26.00;99.90;;;;;;5087139;28;20233;-68
2022/05/29 13:43:37;;;;;;;1.00;0.70;;;25.90;99.90;;;;;;5087448;28;20201;-67
2022/05/29 13:46:25;;;;;;;1.58;1.02;;;25.70;99.90;;;;;;5084821;28;20212;-67
2022/05/29 13:49:17;;;;;;;1.17;0.75;;;25.80;99.90;;;;;;5087215;28;20224;-68
2022/05/29 13:51:44;;;;;;;0.70;0.52;;;25.80;99.90;;;;;;5086933;28;20205;-67